Time;durP1;ratioP1;P1;durP2;ratioP2;P2;SDS_P1;SDS_P2;PMS_P1;PMS_P2;Temp;Humidity;BMP_temperature;BMP_pressure;BME280_temperature;BME280_humidity;BME280_pressure;Samples;Min_cycle;Max_cycle;Signal;HPM_P1;HPM_P2
2023/12/15 00:01:37;;;;;;;35.13;14.52;;;4.60;99.90;;;;;;5042800;28;20036;-62
2023/12/15 00:04:03;;;;;;;33.15;14.93;;;4.60;99.90;;;;;;5039567;28;20021;-60
2023/12/15 00:06:29;;;;;;;40.50;15.80;;;4.60;99.90;;;;;;5040230;28;20033;-59
2023/12/15 00:08:54;;;;;;;34.47;14.82;;;4.60;99.90;;;;;;5042032;28;20479;-61
2023/12/15 00:11:20;;;;;;;38.10;15.00;;;4.60;99.90;;;;;;5040164;28;20021;-62
2023/12/15 00:13:45;;;;;;;40.72;17.08;;;4.60;99.90;;;;;;5036259;28;20395;-60
2023/12/15 00:16:11;;;;;;;41.70;14.02;;;4.60;99.90;;;;;;5040307;28;20036;-61
2023/12/15 00:18:36;;;;;;;38.78;15.65;;;4.60;99.90;;;;;;5037735;28;20060;-61
2023/12/15 00:21:02;;;;;;;40.28;17.25;;;4.60;99.90;;;;;;5035953;28;20033;-61
2023/12/15 00:23:28;;;;;;;38.10;16.77;;;4.60;99.90;;;;;;5035598;28;20033;-61
2023/12/15 00:25:53;;;;;;;52.22;18.88;;;4.60;99.90;;;;;;5041873;28;20418;-60
2023/12/15 00:28:19;;;;;;;51.17;18.77;;;4.60;99.90;;;;;;5039804;28;20037;-62
2023/12/15 00:30:44;;;;;;;43.50;16.75;;;4.70;99.90;;;;;;5041946;28;20687;-61
2023/12/15 00:33:10;;;;;;;40.00;16.90;;;4.70;99.90;;;;;;5038428;28;20376;-62
2023/12/15 00:35:35;;;;;;;45.97;17.75;;;4.80;99.90;;;;;;5045949;28;20433;-61
2023/12/15 00:38:01;;;;;;;40.42;17.98;;;4.80;99.90;;;;;;5050482;28;20029;-62
2023/12/15 00:40:26;;;;;;;41.22;17.25;;;4.90;99.90;;;;;;5043782;28;20407;-62
2023/12/15 00:42:52;;;;;;;44.75;17.60;;;5.00;99.90;;;;;;5052122;28;20040;-62
2023/12/15 00:45:17;;;;;;;41.55;17.00;;;5.00;99.90;;;;;;5041285;28;20032;-60
2023/12/15 00:47:43;;;;;;;40.38;17.38;;;4.90;99.90;;;;;;5051368;28;20024;-61
2023/12/15 00:50:08;;;;;;;47.55;18.63;;;5.00;99.90;;;;;;5044856;28;20387;-59
2023/12/15 00:52:34;;;;;;;45.80;17.67;;;5.00;99.90;;;;;;5046096;28;20029;-59
2023/12/15 00:55:00;;;;;;;40.42;16.83;;;5.00;99.90;;;;;;5042244;28;20022;-60
2023/12/15 00:57:26;;;;;;;45.17;17.73;;;5.00;99.90;;;;;;5043994;28;20029;-62
2023/12/15 00:59:51;;;;;;;50.20;19.70;;;5.10;99.90;;;;;;5042130;28;20032;-62
2023/12/15 01:02:17;;;;;;;44.88;18.42;;;5.10;99.90;;;;;;5040563;28;20092;-61
2023/12/15 01:04:42;;;;;;;43.40;18.67;;;5.00;99.90;;;;;;5039589;28;20028;-59
2023/12/15 01:07:08;;;;;;;45.17;17.90;;;5.00;99.90;;;;;;5034765;28;20036;-62
2023/12/15 01:09:33;;;;;;;42.53;16.50;;;5.00;99.90;;;;;;5036134;28;20037;-60
2023/12/15 01:11:59;;;;;;;39.85;17.10;;;5.00;99.90;;;;;;5034225;28;20158;-62
2023/12/15 01:14:24;;;;;;;49.78;19.42;;;5.00;99.90;;;;;;5034924;28;20048;-62
2023/12/15 01:16:50;;;;;;;44.15;16.58;;;5.00;99.90;;;;;;5040694;28;20507;-62
2023/12/15 01:19:17;;;;;;;43.67;18.13;;;5.00;99.90;;;;;;5035345;28;21784;-61
2023/12/15 01:21:43;;;;;;;46.53;19.17;;;4.90;99.90;;;;;;5038514;28;20026;-62
2023/12/15 01:24:11;;;;;;;41.15;18.02;;;4.90;99.90;;;;;;5032474;28;20101;-62
2023/12/15 01:26:37;;;;;;;43.42;19.35;;;4.90;99.90;;;;;;5035041;28;20117;-61
2023/12/15 01:29:02;;;;;;;49.67;19.88;;;4.90;99.90;;;;;;5032690;28;20136;-62
2023/12/15 01:31:28;;;;;;;46.13;18.15;;;4.90;99.90;;;;;;5037813;28;20026;-62
2023/12/15 01:33:53;;;;;;;48.60;17.40;;;4.80;99.90;;;;;;5040994;28;20408;-62
2023/12/15 01:36:19;;;;;;;46.22;18.30;;;5.00;99.90;;;;;;5048760;28;20076;-63
2023/12/15 01:38:44;;;;;;;49.13;18.48;;;5.00;99.90;;;;;;5051380;28;20025;-61
2023/12/15 01:41:10;;;;;;;42.17;18.58;;;5.00;99.90;;;;;;5044887;28;20029;-62
2023/12/15 01:43:36;;;;;;;45.83;18.75;;;5.10;99.90;;;;;;5049352;28;20033;-62
2023/12/15 01:46:02;;;;;;;48.35;19.63;;;5.10;99.90;;;;;;5047044;28;20455;-61
2023/12/15 01:48:30;;;;;;;45.05;18.90;;;5.10;99.90;;;;;;5046457;28;20033;-62
2023/12/15 01:50:55;;;;;;;44.78;18.52;;;5.10;99.90;;;;;;5044183;28;20052;-62
2023/12/15 01:53:21;;;;;;;42.55;18.73;;;5.10;99.90;;;;;;5038983;28;20049;-59
2023/12/15 01:55:47;;;;;;;45.20;17.55;;;5.20;99.90;;;;;;5045600;28;20029;-62
2023/12/15 01:58:12;;;;;;;43.58;18.42;;;5.20;99.90;;;;;;5054223;28;20269;-62
2023/12/15 02:00:38;;;;;;;47.47;18.30;;;5.20;99.90;;;;;;5046021;28;20131;-60
2023/12/15 02:03:03;;;;;;;46.92;19.20;;;5.20;99.90;;;;;;5041878;28;20384;-62
2023/12/15 02:05:29;;;;;;;43.47;19.00;;;5.30;99.90;;;;;;5040193;28;20041;-62
2023/12/15 02:07:55;;;;;;;48.30;20.15;;;5.20;99.90;;;;;;5036194;28;20407;-61
2023/12/15 02:10:20;;;;;;;45.83;19.65;;;5.30;99.90;;;;;;5032517;28;20581;-63
2023/12/15 02:12:46;;;;;;;55.25;21.02;;;5.30;99.90;;;;;;5036947;28;20617;-60
2023/12/15 02:15:12;;;;;;;48.47;20.20;;;5.30;99.90;;;;;;5033285;28;20030;-61
2023/12/15 02:17:38;;;;;;;49.38;20.13;;;5.40;99.90;;;;;;5040304;28;20029;-62
2023/12/15 02:20:04;;;;;;;44.45;19.20;;;5.30;99.90;;;;;;5031010;28;20051;-61
2023/12/15 02:22:30;;;;;;;47.30;20.73;;;5.40;99.90;;;;;;5036638;28;20060;-61
2023/12/15 02:24:55;;;;;;;47.35;18.98;;;5.40;99.90;;;;;;5034924;28;20061;-61
2023/12/15 02:27:21;;;;;;;48.75;19.55;;;5.40;99.90;;;;;;5033875;28;20029;-62
2023/12/15 02:29:46;;;;;;;46.35;18.98;;;5.40;99.90;;;;;;5043506;28;20032;-60
2023/12/15 02:32:12;;;;;;;51.22;20.48;;;5.50;99.90;;;;;;5041257;28;20483;-62
2023/12/15 02:34:38;;;;;;;48.72;19.67;;;5.50;99.90;;;;;;5035327;28;20036;-62
2023/12/15 02:37:03;;;;;;;47.63;20.83;;;5.50;99.90;;;;;;5036124;28;20037;-62
2023/12/15 02:39:29;;;;;;;49.65;20.00;;;5.50;99.90;;;;;;5040301;28;20136;-59
2023/12/15 02:41:54;;;;;;;46.83;20.02;;;5.50;99.90;;;;;;5050277;28;20078;-62
2023/12/15 02:44:20;;;;;;;49.78;20.65;;;5.50;99.90;;;;;;5043336;28;20108;-62
2023/12/15 02:46:45;;;;;;;50.92;21.27;;;5.60;99.90;;;;;;5051577;28;20037;-59
2023/12/15 02:49:11;;;;;;;49.00;19.30;;;5.50;99.90;;;;;;5046413;28;20029;-62
2023/12/15 02:51:36;;;;;;;50.35;20.13;;;5.60;99.90;;;;;;5052247;28;20029;-61
2023/12/15 02:54:03;;;;;;;46.67;17.95;;;5.60;99.90;;;;;;5046313;28;20103;-59
2023/12/15 02:56:29;;;;;;;45.88;19.65;;;5.70;99.90;;;;;;5050447;28;20021;-61
2023/12/15 02:58:54;;;;;;;49.65;20.67;;;5.70;99.90;;;;;;5045931;28;20552;-62
2023/12/15 03:01:20;;;;;;;51.08;20.23;;;5.70;99.90;;;;;;5049962;28;20031;-61
2023/12/15 03:03:45;;;;;;;48.30;20.00;;;5.60;99.90;;;;;;5052386;28;20028;-60
2023/12/15 03:06:11;;;;;;;48.63;20.23;;;5.60;99.90;;;;;;5051800;28;20143;-62
2023/12/15 03:08:37;;;;;;;46.25;19.55;;;5.60;99.90;;;;;;5050449;28;20029;-61
2023/12/15 03:11:03;;;;;;;45.97;19.38;;;5.70;99.90;;;;;;5048599;28;20032;-59
2023/12/15 03:13:28;;;;;;;47.03;21.17;;;5.70;99.90;;;;;;5045145;28;20028;-62
2023/12/15 03:16:03;;;;;;;54.53;21.85;;;5.70;99.90;;;;;;5043288;28;20200;-61
2023/12/15 03:18:28;;;;;;;46.10;19.70;;;5.70;99.90;;;;;;5038428;28;20021;-62
2023/12/15 03:20:54;;;;;;;51.83;20.05;;;5.70;99.90;;;;;;5051490;28;20044;-62
2023/12/15 03:23:19;;;;;;;47.72;20.85;;;5.70;99.90;;;;;;5047129;28;20075;-62
2023/12/15 03:25:45;;;;;;;55.95;20.85;;;5.70;99.90;;;;;;5046620;28;20025;-60
2023/12/15 03:28:10;;;;;;;46.10;19.35;;;5.70;99.90;;;;;;5043388;28;20079;-60
2023/12/15 03:30:36;;;;;;;44.63;18.48;;;5.70;99.90;;;;;;5045095;28;20384;-61
2023/12/15 03:33:01;;;;;;;47.28;19.77;;;5.80;99.90;;;;;;5037156;28;20032;-61
2023/12/15 03:35:27;;;;;;;48.65;21.52;;;5.80;99.90;;;;;;5042146;28;20469;-61
2023/12/15 03:37:52;;;;;;;46.90;19.20;;;5.90;99.90;;;;;;5042497;28;20406;-62
2023/12/15 03:40:18;;;;;;;46.38;19.20;;;5.80;99.90;;;;;;5046208;28;20083;-63
2023/12/15 03:42:46;;;;;;;42.72;19.05;;;5.90;99.90;;;;;;5044556;28;20075;-61
2023/12/15 03:45:12;;;;;;;38.35;18.50;;;5.90;99.90;;;;;;5040955;28;20021;-62
2023/12/15 03:47:37;;;;;;;39.33;18.42;;;6.00;99.90;;;;;;5037056;28;20055;-61
2023/12/15 03:50:03;;;;;;;45.70;19.40;;;6.00;99.90;;;;;;5034141;28;20502;-62
2023/12/15 03:52:30;;;;;;;41.17;18.33;;;5.90;99.90;;;;;;5036575;28;20083;-60
2023/12/15 03:54:56;;;;;;;48.92;18.73;;;5.90;99.90;;;;;;5040095;28;20027;-59
2023/12/15 03:57:21;;;;;;;39.40;18.02;;;5.80;99.90;;;;;;5041720;28;20104;-62
2023/12/15 03:59:47;;;;;;;54.95;17.20;;;5.80;99.90;;;;;;5036212;28;20025;-60
2023/12/15 04:02:14;;;;;;;46.08;18.98;;;5.80;99.90;;;;;;5035797;28;20038;-61
2023/12/15 04:04:41;;;;;;;43.33;18.92;;;5.80;99.90;;;;;;5036800;28;20043;-62
2023/12/15 04:07:07;;;;;;;42.65;17.55;;;5.80;99.90;;;;;;5039612;28;20059;-62
2023/12/15 04:09:32;;;;;;;39.10;17.67;;;5.80;99.90;;;;;;5036384;28;20052;-63
2023/12/15 04:11:58;;;;;;;42.17;17.27;;;5.90;99.90;;;;;;5040650;28;20041;-62
2023/12/15 04:14:23;;;;;;;43.33;18.17;;;5.80;99.90;;;;;;5036158;28;20025;-62
2023/12/15 04:16:49;;;;;;;36.13;16.80;;;5.90;99.90;;;;;;5042770;28;20063;-62
2023/12/15 04:19:14;;;;;;;42.35;17.55;;;6.00;99.90;;;;;;5055313;28;20032;-62
2023/12/15 04:21:40;;;;;;;49.22;17.88;;;6.10;99.90;;;;;;5057392;28;20399;-61
2023/12/15 04:24:06;;;;;;;37.80;17.55;;;6.00;99.90;;;;;;5049345;28;20061;-63
2023/12/15 04:26:32;;;;;;;34.35;15.57;;;5.90;99.90;;;;;;5047326;28;20027;-62
2023/12/15 04:28:58;;;;;;;45.85;16.77;;;6.00;99.90;;;;;;5047281;28;20120;-62
2023/12/15 04:31:23;;;;;;;44.50;16.02;;;6.00;99.90;;;;;;5046307;28;20545;-62
2023/12/15 04:33:49;;;;;;;36.55;15.98;;;6.00;99.90;;;;;;5045770;28;20105;-60
2023/12/15 04:36:19;;;;;;;32.30;15.07;;;6.00;99.90;;;;;;5054607;28;20032;-60
2023/12/15 04:38:44;;;;;;;34.50;16.27;;;6.10;99.90;;;;;;5047384;28;20036;-61
2023/12/15 04:41:30;;;;;;;43.30;17.40;;;6.10;99.90;;;;;;5049777;28;20024;-62
2023/12/15 04:43:55;;;;;;;37.80;15.55;;;6.10;99.90;;;;;;5043273;28;20044;-61
2023/12/15 04:46:24;;;;;;;31.02;15.88;;;6.00;99.90;;;;;;5048443;28;20033;-59
2023/12/15 04:48:50;;;;;;;37.30;16.02;;;6.00;99.90;;;;;;5046294;28;20066;-60
2023/12/15 04:51:16;;;;;;;41.95;16.40;;;6.00;99.90;;;;;;5043568;28;20034;-62
2023/12/15 04:53:41;;;;;;;36.28;14.55;;;6.00;99.90;;;;;;5048085;28;20402;-61
2023/12/15 04:56:07;;;;;;;36.50;15.18;;;6.00;99.90;;;;;;5045326;28;20099;-62
2023/12/15 04:58:35;;;;;;;43.05;16.13;;;6.00;99.90;;;;;;5046586;28;20096;-62
2023/12/15 05:01:01;;;;;;;37.88;15.43;;;5.90;99.90;;;;;;5052449;28;20040;-63
2023/12/15 05:03:27;;;;;;;38.17;16.08;;;5.90;99.90;;;;;;5049823;28;20029;-62
2023/12/15 05:05:52;;;;;;;49.28;15.70;;;5.90;99.90;;;;;;5052642;28;20043;-61
2023/12/15 05:08:18;;;;;;;40.15;15.88;;;6.00;99.90;;;;;;5051702;28;20025;-63
2023/12/15 05:10:43;;;;;;;43.63;15.70;;;6.00;99.90;;;;;;5046357;28;20041;-62
2023/12/15 05:13:09;;;;;;;39.03;17.42;;;5.90;99.90;;;;;;5049420;28;20025;-61
2023/12/15 05:15:34;;;;;;;40.03;16.23;;;5.90;99.90;;;;;;5043300;28;20040;-62
2023/12/15 05:18:00;;;;;;;45.13;16.65;;;5.90;99.90;;;;;;5046042;28;20020;-62
2023/12/15 05:20:25;;;;;;;37.78;15.85;;;5.90;99.90;;;;;;5040153;28;20271;-63
2023/12/15 05:22:51;;;;;;;42.53;16.70;;;6.00;99.90;;;;;;5045289;28;20111;-62
2023/12/15 05:25:17;;;;;;;38.75;16.83;;;5.90;99.90;;;;;;5050730;28;20057;-63
2023/12/15 05:27:42;;;;;;;34.03;15.13;;;6.00;99.90;;;;;;5049588;28;20167;-62
2023/12/15 05:30:09;;;;;;;36.05;15.85;;;6.00;99.90;;;;;;5044318;28;20060;-62
2023/12/15 05:32:35;;;;;;;42.03;15.35;;;6.10;99.90;;;;;;5050715;28;20495;-59
2023/12/15 05:35:00;;;;;;;34.92;14.95;;;6.10;99.90;;;;;;5038347;28;20040;-61
2023/12/15 05:37:26;;;;;;;41.28;17.27;;;6.00;99.90;;;;;;5041272;28;20029;-62
2023/12/15 05:39:51;;;;;;;37.78;14.80;;;6.10;99.90;;;;;;5046238;28;20112;-61
2023/12/15 05:42:17;;;;;;;37.33;14.38;;;6.10;99.90;;;;;;5035005;28;20037;-62
2023/12/15 05:44:43;;;;;;;41.30;16.48;;;6.10;99.90;;;;;;5048823;28;20581;-62
2023/12/15 05:47:08;;;;;;;39.22;15.30;;;6.10;99.90;;;;;;5047813;28;20056;-61
2023/12/15 05:49:38;;;;;;;38.92;16.73;;;6.10;99.90;;;;;;5044696;28;20025;-62
2023/12/15 05:52:04;;;;;;;37.40;14.93;;;6.10;99.90;;;;;;5039715;28;20029;-62
2023/12/15 05:54:29;;;;;;;36.05;14.85;;;6.20;99.90;;;;;;5042205;28;20041;-61
2023/12/15 05:56:55;;;;;;;33.85;14.57;;;6.10;99.90;;;;;;5035406;28;20063;-62
2023/12/15 05:59:21;;;;;;;33.53;15.00;;;6.20;99.90;;;;;;5041677;28;20512;-62
2023/12/15 06:01:46;;;;;;;37.50;15.25;;;6.10;99.90;;;;;;5043130;28;20066;-61
2023/12/15 06:04:11;;;;;;;38.22;15.80;;;6.10;99.90;;;;;;5038711;28;20029;-61
2023/12/15 06:06:37;;;;;;;38.72;16.33;;;6.10;99.90;;;;;;5045216;28;20064;-63
2023/12/15 06:09:02;;;;;;;38.08;15.52;;;6.10;99.90;;;;;;5044295;28;20086;-62
2023/12/15 06:11:28;;;;;;;38.90;15.48;;;6.10;99.90;;;;;;5044964;28;20032;-62
2023/12/15 06:13:54;;;;;;;33.75;15.35;;;6.10;99.90;;;;;;5053429;28;20029;-63
2023/12/15 06:16:20;;;;;;;45.47;16.35;;;6.10;99.90;;;;;;5045054;28;20036;-62
2023/12/15 06:18:46;;;;;;;36.08;14.73;;;6.20;99.90;;;;;;5038494;28;20030;-62
2023/12/15 06:21:22;;;;;;;39.25;14.75;;;6.20;99.90;;;;;;5038727;28;20029;-62
2023/12/15 06:23:48;;;;;;;40.67;14.55;;;6.20;99.90;;;;;;5035095;28;20033;-63
2023/12/15 06:26:21;;;;;;;36.53;16.10;;;6.20;99.90;;;;;;5050616;28;20147;-60
2023/12/15 06:28:47;;;;;;;37.38;15.38;;;6.20;99.90;;;;;;5039763;28;20035;-63
2023/12/15 06:31:13;;;;;;;34.85;15.18;;;6.20;99.90;;;;;;5043215;28;20033;-61
2023/12/15 06:33:39;;;;;;;36.72;14.98;;;6.30;99.90;;;;;;5038532;28;20039;-63
2023/12/15 06:36:05;;;;;;;35.20;14.45;;;6.20;99.90;;;;;;5040924;28;20028;-62
2023/12/15 06:38:31;;;;;;;34.08;15.68;;;6.30;99.90;;;;;;5042783;28;20013;-62
2023/12/15 06:40:56;;;;;;;39.67;15.20;;;6.30;99.90;;;;;;5047197;28;20075;-61
2023/12/15 06:43:22;;;;;;;35.67;15.10;;;6.20;99.90;;;;;;5050730;28;20032;-62
2023/12/15 06:45:48;;;;;;;40.40;15.60;;;6.20;99.90;;;;;;5048411;28;20105;-62
2023/12/15 06:48:14;;;;;;;41.20;15.43;;;6.20;99.90;;;;;;5047703;28;20115;-63
2023/12/15 06:50:39;;;;;;;36.40;16.10;;;6.30;99.90;;;;;;5050769;28;20029;-63
2023/12/15 06:53:05;;;;;;;35.00;15.65;;;6.30;99.90;;;;;;5050242;28;20491;-62
2023/12/15 06:55:30;;;;;;;34.50;15.07;;;6.30;99.90;;;;;;5051099;28;20448;-61
2023/12/15 06:57:56;;;;;;;33.67;14.57;;;6.40;99.90;;;;;;5052206;28;20533;-63
2023/12/15 07:00:21;;;;;;;41.35;16.08;;;6.40;99.90;;;;;;5045307;28;20060;-62
2023/12/15 07:02:47;;;;;;;34.33;13.90;;;6.40;99.90;;;;;;5052457;28;20060;-62
2023/12/15 07:05:12;;;;;;;36.53;14.18;;;6.40;99.90;;;;;;5051926;28;20119;-63
2023/12/15 07:07:38;;;;;;;36.22;14.60;;;6.40;99.90;;;;;;5051306;28;20050;-62
2023/12/15 07:10:04;;;;;;;48.15;15.38;;;6.50;99.90;;;;;;5049617;28;20105;-61
2023/12/15 07:12:29;;;;;;;33.80;16.23;;;6.60;99.90;;;;;;5050372;28;20032;-62
2023/12/15 07:14:55;;;;;;;34.67;15.38;;;6.60;99.90;;;;;;5060157;28;20025;-63
2023/12/15 07:17:20;;;;;;;39.88;15.40;;;6.50;99.90;;;;;;5053868;28;20104;-62
2023/12/15 07:19:46;;;;;;;37.40;15.10;;;6.50;99.90;;;;;;5053402;28;20075;-63
2023/12/15 07:22:13;;;;;;;38.70;15.18;;;6.50;99.90;;;;;;5051531;28;20057;-62
2023/12/15 07:24:40;;;;;;;33.13;15.73;;;6.50;99.90;;;;;;5053227;28;20029;-63
2023/12/15 07:27:06;;;;;;;36.22;15.40;;;6.40;99.90;;;;;;5053532;28;20528;-64
2023/12/15 07:29:32;;;;;;;37.83;15.48;;;6.40;99.90;;;;;;5046132;28;20029;-61
2023/12/15 07:31:58;;;;;;;41.05;18.08;;;6.30;99.90;;;;;;5048579;28;20029;-62
2023/12/15 07:34:23;;;;;;;37.33;15.90;;;6.40;99.90;;;;;;5049561;28;20584;-62
2023/12/15 07:36:49;;;;;;;34.75;15.00;;;6.40;99.90;;;;;;5054172;28;20047;-63
2023/12/15 07:39:21;;;;;;;41.78;15.25;;;6.40;99.90;;;;;;5047787;28;20047;-63
2023/12/15 07:41:48;;;;;;;35.95;15.65;;;6.40;99.90;;;;;;5055771;28;20029;-62
2023/12/15 07:44:14;;;;;;;36.72;15.48;;;6.40;99.90;;;;;;5044095;28;20041;-62
2023/12/15 07:46:40;;;;;;;40.35;16.52;;;6.40;99.90;;;;;;5054092;28;20033;-63
2023/12/15 07:49:06;;;;;;;35.80;16.70;;;6.40;99.90;;;;;;5045806;28;20022;-62
2023/12/15 07:51:31;;;;;;;37.30;15.98;;;6.50;99.90;;;;;;5048486;28;20037;-63
2023/12/15 07:53:57;;;;;;;39.38;15.75;;;6.50;99.90;;;;;;5054413;28;20109;-63
2023/12/15 07:56:25;;;;;;;38.88;16.05;;;6.60;99.90;;;;;;5048460;28;20041;-63
2023/12/15 07:58:54;;;;;;;35.75;16.20;;;6.60;99.90;;;;;;5051453;28;20032;-63
2023/12/15 08:01:21;;;;;;;43.47;15.93;;;6.70;99.90;;;;;;5048782;28;20490;-63
2023/12/15 08:03:48;;;;;;;33.92;16.05;;;6.70;99.90;;;;;;5049901;28;20407;-62
2023/12/15 08:06:15;;;;;;;40.97;16.55;;;6.70;99.90;;;;;;5051175;28;20040;-62
2023/12/15 08:08:41;;;;;;;36.75;14.95;;;6.70;99.90;;;;;;5045355;28;20373;-62
2023/12/15 08:11:07;;;;;;;40.15;15.95;;;6.80;99.90;;;;;;5050898;28;20066;-62
2023/12/15 08:13:33;;;;;;;34.80;16.13;;;6.80;99.90;;;;;;5051218;28;20057;-61
2023/12/15 08:15:58;;;;;;;54.70;21.08;;;6.80;99.90;;;;;;5060472;28;20036;-62
2023/12/15 08:18:24;;;;;;;39.78;17.35;;;7.00;99.90;;;;;;5058737;28;20048;-62
2023/12/15 08:20:50;;;;;;;43.30;17.65;;;6.90;99.90;;;;;;5055322;28;20036;-60
2023/12/15 08:23:16;;;;;;;62.80;23.45;;;7.00;99.90;;;;;;5050458;28;20166;-61
2023/12/15 08:25:41;;;;;;;40.13;17.48;;;7.10;99.90;;;;;;5050849;28;20111;-62
2023/12/15 08:28:09;;;;;;;58.35;20.98;;;7.10;99.90;;;;;;5043579;28;20520;-62
2023/12/15 08:30:35;;;;;;;56.63;22.58;;;7.20;99.90;;;;;;5050567;28;20060;-62
2023/12/15 08:33:01;;;;;;;66.47;26.00;;;7.30;99.90;;;;;;5051513;28;20455;-63
2023/12/15 08:35:27;;;;;;;66.85;24.95;;;7.30;99.90;;;;;;5042311;28;20036;-63
2023/12/15 08:37:54;;;;;;;69.07;25.52;;;7.40;99.90;;;;;;5049880;28;20391;-63
2023/12/15 08:40:20;;;;;;;77.65;29.35;;;7.50;99.90;;;;;;5048144;28;20082;-63
2023/12/15 08:42:46;;;;;;;71.30;26.25;;;7.50;99.90;;;;;;5052127;28;20029;-62
2023/12/15 08:45:11;;;;;;;85.38;29.00;;;7.50;99.90;;;;;;5051752;28;20025;-62
2023/12/15 08:47:37;;;;;;;74.95;27.25;;;7.60;99.90;;;;;;5047754;28;20072;-62
2023/12/15 08:50:03;;;;;;;79.45;29.50;;;7.60;99.90;;;;;;5046968;28;20483;-62
2023/12/15 08:52:29;;;;;;;88.65;29.98;;;7.70;99.90;;;;;;5044859;28;20067;-62
2023/12/15 08:54:54;;;;;;;90.47;31.83;;;7.70;99.90;;;;;;5049789;28;20017;-62
2023/12/15 08:57:20;;;;;;;90.30;33.15;;;7.80;99.90;;;;;;5052784;28;20442;-62
2023/12/15 08:59:45;;;;;;;99.75;30.70;;;7.80;99.90;;;;;;5048409;28;20032;-63
2023/12/15 09:02:12;;;;;;;90.13;31.98;;;7.90;99.90;;;;;;5047228;28;20033;-63
2023/12/15 09:04:37;;;;;;;81.13;30.85;;;7.90;99.90;;;;;;5048166;28;20387;-62
2023/12/15 09:07:03;;;;;;;97.20;31.77;;;8.00;99.90;;;;;;5051012;28;20103;-63
2023/12/15 09:09:29;;;;;;;84.60;30.92;;;8.00;99.90;;;;;;5043385;28;20028;-62
2023/12/15 09:11:54;;;;;;;88.88;31.92;;;8.00;99.90;;;;;;5058183;28;20037;-63
2023/12/15 09:14:23;;;;;;;89.20;30.90;;;8.10;99.90;;;;;;5047042;28;20040;-62
2023/12/15 09:16:49;;;;;;;85.00;32.17;;;8.10;99.90;;;;;;5056511;28;20023;-63
2023/12/15 09:19:14;;;;;;;81.13;30.52;;;8.10;99.90;;;;;;5043945;28;20500;-61
2023/12/15 09:21:40;;;;;;;90.47;32.88;;;8.20;99.90;;;;;;5047743;28;20048;-61
2023/12/15 09:24:06;;;;;;;96.40;31.92;;;8.20;99.90;;;;;;5044687;28;20033;-61
2023/12/15 09:26:31;;;;;;;90.80;31.98;;;8.20;99.90;;;;;;5047540;28;20523;-62
2023/12/15 09:28:57;;;;;;;90.57;31.20;;;8.20;99.90;;;;;;5054813;28;20040;-62
2023/12/15 09:31:22;;;;;;;89.78;32.67;;;8.20;99.90;;;;;;5054052;28;20029;-62
2023/12/15 09:33:48;;;;;;;88.53;33.25;;;8.20;99.90;;;;;;5050252;28;20040;-62
2023/12/15 09:36:13;;;;;;;90.78;32.28;;;8.20;99.90;;;;;;5047340;28;20036;-62
2023/12/15 09:38:39;;;;;;;79.80;31.67;;;8.20;99.90;;;;;;5045381;28;20376;-62
2023/12/15 09:41:05;;;;;;;86.78;31.85;;;8.30;99.90;;;;;;5049195;28;20031;-62
2023/12/15 09:43:31;;;;;;;85.50;31.38;;;8.30;99.90;;;;;;5043420;28;20052;-61
2023/12/15 09:45:58;;;;;;;83.00;33.75;;;8.30;99.90;;;;;;5056471;28;20024;-62
2023/12/15 09:48:27;;;;;;;86.63;29.75;;;8.30;99.90;;;;;;5055655;28;20060;-63
2023/12/15 09:50:55;;;;;;;92.10;31.27;;;8.30;99.90;;;;;;5057258;28;20021;-61
2023/12/15 09:53:22;;;;;;;80.15;29.77;;;8.30;99.90;;;;;;5052479;28;20090;-62
2023/12/15 09:55:48;;;;;;;92.25;30.13;;;8.30;99.90;;;;;;5055235;28;20100;-62
2023/12/15 09:58:14;;;;;;;87.30;30.70;;;8.40;99.90;;;;;;5052461;28;20618;-62
2023/12/15 10:00:39;;;;;;;82.60;33.95;;;8.40;99.90;;;;;;5051949;28;20127;-62
2023/12/15 10:03:05;;;;;;;90.22;33.60;;;8.40;99.90;;;;;;5050230;28;20112;-62
2023/12/15 10:05:30;;;;;;;81.75;31.75;;;8.40;99.90;;;;;;5055582;28;20032;-62
2023/12/15 10:07:56;;;;;;;87.18;31.25;;;8.40;99.90;;;;;;5053833;28;20532;-62
2023/12/15 10:10:29;;;;;;;85.97;32.78;;;8.40;99.90;;;;;;5047830;28;20037;-62
2023/12/15 10:12:58;;;;;;;82.10;30.73;;;8.50;99.90;;;;;;5052048;28;20128;-62
2023/12/15 10:15:24;;;;;;;73.82;30.65;;;8.50;99.90;;;;;;5055687;28;20028;-61
2023/12/15 10:17:50;;;;;;;79.35;30.58;;;8.60;99.90;;;;;;5055931;28;20475;-61
2023/12/15 10:20:16;;;;;;;79.07;31.60;;;8.60;99.90;;;;;;5046667;28;20036;-62
2023/12/15 10:22:42;;;;;;;86.20;33.17;;;8.60;99.90;;;;;;5050827;28;20108;-62
2023/12/15 10:25:21;;;;;;;81.22;33.20;;;8.60;99.90;;;;;;5051552;28;20073;-62
2023/12/15 10:27:48;;;;;;;79.32;30.55;;;8.60;99.90;;;;;;5058494;28;20025;-61
2023/12/15 10:30:15;;;;;;;69.38;28.73;;;8.60;99.90;;;;;;5050910;28;20518;-62
2023/12/15 10:32:41;;;;;;;83.20;31.83;;;8.70;99.90;;;;;;5056439;28;20069;-62
2023/12/15 10:35:10;;;;;;;80.20;31.85;;;8.70;99.90;;;;;;5049117;28;20048;-61
2023/12/15 10:37:36;;;;;;;76.05;29.25;;;8.70;99.90;;;;;;5056963;28;20548;-62
2023/12/15 10:40:02;;;;;;;77.93;30.85;;;8.80;99.90;;;;;;5047740;28;20045;-62
2023/12/15 10:42:30;;;;;;;74.25;28.40;;;8.80;99.90;;;;;;5051504;28;20478;-62
2023/12/15 10:44:58;;;;;;;74.70;28.13;;;8.80;99.90;;;;;;5051478;28;20036;-62
2023/12/15 10:47:24;;;;;;;78.75;29.17;;;8.80;99.90;;;;;;5058595;28;20030;-61
2023/12/15 10:49:52;;;;;;;64.00;27.60;;;8.80;99.90;;;;;;5050614;28;20402;-59
2023/12/15 10:52:21;;;;;;;68.50;27.05;;;8.80;99.90;;;;;;5049975;28;20021;-62
2023/12/15 10:54:51;;;;;;;62.33;27.02;;;8.80;99.90;;;;;;5046440;28;20034;-62
2023/12/15 10:57:18;;;;;;;74.22;27.63;;;8.90;99.90;;;;;;5057741;28;20028;-62
2023/12/15 10:59:45;;;;;;;71.53;27.67;;;8.90;99.90;;;;;;5053872;28;20044;-62
2023/12/15 11:02:12;;;;;;;62.47;24.67;;;8.90;99.90;;;;;;5053436;28;20166;-61
2023/12/15 11:04:38;;;;;;;63.42;25.80;;;9.00;99.90;;;;;;5052683;28;20032;-61
2023/12/15 11:07:04;;;;;;;61.67;24.00;;;9.00;99.90;;;;;;5058097;28;20037;-62
2023/12/15 11:09:32;;;;;;;64.35;24.73;;;8.90;99.90;;;;;;5053560;28;20114;-60
2023/12/15 11:12:30;;;;;;;65.45;26.38;;;9.00;99.90;;;;;;5044872;28;20029;-62
2023/12/15 11:15:11;;;;;;;66.80;25.60;;;9.00;99.90;;;;;;5049481;28;20052;-62
2023/12/15 11:17:47;;;;;;;63.53;25.55;;;9.00;99.90;;;;;;5052608;28;20064;-63
2023/12/15 11:20:33;;;;;;;65.40;24.23;;;9.00;99.90;;;;;;5057794;28;20020;-64
2023/12/15 11:23:07;;;;;;;72.50;26.27;;;9.10;99.90;;;;;;5047351;28;20116;-63
2023/12/15 11:25:36;;;;;;;62.77;25.20;;;9.10;99.90;;;;;;5054512;28;20029;-63
2023/12/15 11:28:13;;;;;;;69.65;27.63;;;9.10;99.90;;;;;;5052326;28;20301;-62
2023/12/15 11:30:44;;;;;;;59.42;24.38;;;9.10;99.90;;;;;;5049257;28;20056;-63
2023/12/15 11:33:30;;;;;;;64.57;25.85;;;9.10;99.90;;;;;;5045016;28;20021;-63
2023/12/15 11:36:05;;;;;;;59.00;24.90;;;9.10;99.90;;;;;;5037266;28;20017;-63
2023/12/15 11:38:31;;;;;;;67.03;25.15;;;9.10;99.90;;;;;;5050131;28;20024;-62
2023/12/15 11:40:57;;;;;;;68.68;24.40;;;9.10;99.90;;;;;;5052457;28;20394;-63
2023/12/15 11:43:23;;;;;;;62.58;23.92;;;9.10;99.90;;;;;;5053043;28;20024;-63
2023/12/15 11:45:54;;;;;;;62.80;23.58;;;9.10;99.90;;;;;;5054567;28;20049;-61
2023/12/15 11:48:21;;;;;;;69.72;25.48;;;9.20;99.90;;;;;;5057260;28;20032;-63
2023/12/15 11:50:48;;;;;;;62.20;24.45;;;9.20;99.90;;;;;;5045986;28;20033;-63
2023/12/15 11:53:14;;;;;;;64.82;23.98;;;9.20;99.90;;;;;;5053867;28;20054;-63
2023/12/15 11:55:44;;;;;;;60.17;23.90;;;9.30;99.90;;;;;;5050967;28;20108;-60
2023/12/15 11:58:10;;;;;;;63.78;25.42;;;9.40;99.90;;;;;;5046341;28;20443;-62
2023/12/15 12:00:36;;;;;;;52.92;24.05;;;9.30;99.90;;;;;;5043905;28;20314;-62
2023/12/15 12:03:05;;;;;;;68.30;24.23;;;9.30;99.90;;;;;;5044429;28;20035;-63
2023/12/15 12:05:31;;;;;;;65.70;23.95;;;9.30;99.90;;;;;;5051555;28;20029;-61
2023/12/15 12:07:58;;;;;;;71.32;25.65;;;9.30;99.90;;;;;;5058958;28;20037;-62
2023/12/15 12:10:35;;;;;;;69.60;25.10;;;9.30;99.90;;;;;;5042657;28;20050;-62
2023/12/15 12:13:04;;;;;;;69.75;24.65;;;9.20;99.90;;;;;;5046026;28;20021;-63
2023/12/15 12:15:30;;;;;;;61.42;24.83;;;9.20;99.90;;;;;;5044014;28;20036;-62
2023/12/15 12:17:55;;;;;;;71.72;25.42;;;9.30;99.90;;;;;;5053319;28;20029;-62
2023/12/15 12:20:26;;;;;;;78.47;26.35;;;9.30;99.90;;;;;;5047717;28;20104;-64
2023/12/15 12:22:52;;;;;;;65.95;25.05;;;9.30;99.90;;;;;;5050691;28;20027;-63
2023/12/15 12:25:17;;;;;;;73.30;23.13;;;9.40;99.90;;;;;;5051639;28;20032;-60
2023/12/15 12:27:44;;;;;;;73.47;23.08;;;9.30;99.90;;;;;;5055097;28;20474;-62
2023/12/15 12:30:15;;;;;;;73.25;25.20;;;9.40;99.90;;;;;;5046278;28;20605;-57
2023/12/15 12:32:40;;;;;;;66.60;25.42;;;9.30;99.90;;;;;;5041455;28;20036;-63